sensor_id;sensor_type;location;lat;lon;timestamp;temperature;humidity
66827;DHT22;53727;45.242;19.796;2022-09-09T00:04:36;640.80;2329.60
66827;DHT22;53727;45.242;19.796;2022-09-09T00:07:21;640.80;2355.20
66827;DHT22;53727;45.242;19.796;2022-09-09T00:12:25;640.80;2406.40
66827;DHT22;53727;45.242;19.796;2022-09-09T00:22:53;640.20;2432.00
66827;DHT22;53727;45.242;19.796;2022-09-09T00:25:29;640.10;2432.00
66827;DHT22;53727;45.242;19.796;2022-09-09T00:28:00;615.20;2432.00
66827;DHT22;53727;45.242;19.796;2022-09-09T00:30:29;615.20;2432.00
66827;DHT22;53727;45.242;19.796;2022-09-09T00:33:02;615.10;2432.00
66827;DHT22;53727;45.242;19.796;2022-09-09T00:35:45;614.90;2432.00
66827;DHT22;53727;45.242;19.796;2022-09-09T00:38:28;614.90;2432.00
66827;DHT22;53727;45.242;19.796;2022-09-09T00:41:03;614.80;2432.00
66827;DHT22;53727;45.242;19.796;2022-09-09T00:43:32;614.50;2432.00
66827;DHT22;53727;45.242;19.796;2022-09-09T00:52:12;589.60;2432.00
66827;DHT22;53727;45.242;19.796;2022-09-09T00:55:00;589.60;2432.00
66827;DHT22;53727;45.242;19.796;2022-09-09T00:57:30;589.40;2432.00
66827;DHT22;53727;45.242;19.796;2022-09-09T01:00:34;589.40;2432.00
66827;DHT22;53727;45.242;19.796;2022-09-09T01:03:25;589.40;2432.00
66827;DHT22;53727;45.242;19.796;2022-09-09T01:11:20;589.30;2432.00
66827;DHT22;53727;45.242;19.796;2022-09-09T01:13:47;589.20;2432.00
66827;DHT22;53727;45.242;19.796;2022-09-09T01:16:15;589.10;2432.00
66827;DHT22;53727;45.242;19.796;2022-09-09T01:18:48;589.00;2432.00
66827;DHT22;53727;45.242;19.796;2022-09-09T01:26:45;589.30;2432.00
66827;DHT22;53727;45.242;19.796;2022-09-09T01:29:14;589.30;2432.00
66827;DHT22;53727;45.242;19.796;2022-09-09T01:31:54;589.40;2432.00
66827;DHT22;53727;45.242;19.796;2022-09-09T01:34:21;589.50;2432.00
66827;DHT22;53727;45.242;19.796;2022-09-09T01:39:26;589.50;2432.00
66827;DHT22;53727;45.242;19.796;2022-09-09T01:41:53;589.40;2432.00
66827;DHT22;53727;45.242;19.796;2022-09-09T01:44:20;589.40;2432.00
66827;DHT22;53727;45.242;19.796;2022-09-09T01:46:46;589.40;2432.00
66827;DHT22;53727;45.242;19.796;2022-09-09T01:49:11;589.20;2432.00
66827;DHT22;53727;45.242;19.796;2022-09-09T01:51:39;589.30;2432.00
66827;DHT22;53727;45.242;19.796;2022-09-09T01:54:06;589.10;2432.00
66827;DHT22;53727;45.242;19.796;2022-09-09T02:00:01;589.20;2432.00
66827;DHT22;53727;45.242;19.796;2022-09-09T02:02:39;589.20;2432.00
66827;DHT22;53727;45.242;19.796;2022-09-09T02:08:03;588.90;2432.00
66827;DHT22;53727;45.242;19.796;2022-09-09T02:10:50;588.80;2432.00
66827;DHT22;53727;45.242;19.796;2022-09-09T02:13:20;588.80;2432.00
66827;DHT22;53727;45.242;19.796;2022-09-09T02:15:55;564.10;2432.00
66827;DHT22;53727;45.242;19.796;2022-09-09T02:18:28;588.80;2432.00
66827;DHT22;53727;45.242;19.796;2022-09-09T02:20:56;564.10;2432.00
66827;DHT22;53727;45.242;19.796;2022-09-09T02:23:24;564.10;2432.00
66827;DHT22;53727;45.242;19.796;2022-09-09T02:25:51;564.10;2432.00
66827;DHT22;53727;45.242;19.796;2022-09-09T02:28:19;564.10;2432.00
66827;DHT22;53727;45.242;19.796;2022-09-09T02:30:48;564.10;2432.00
66827;DHT22;53727;45.242;19.796;2022-09-09T02:33:19;564.10;2432.00
66827;DHT22;53727;45.242;19.796;2022-09-09T02:35:45;564.10;2432.00
66827;DHT22;53727;45.242;19.796;2022-09-09T02:38:13;564.10;2432.00
66827;DHT22;53727;45.242;19.796;2022-09-09T02:40:40;588.80;2432.00
66827;DHT22;53727;45.242;19.796;2022-09-09T02:43:06;564.10;2432.00
66827;DHT22;53727;45.242;19.796;2022-09-09T02:45:44;564.10;2432.00
66827;DHT22;53727;45.242;19.796;2022-09-09T02:51:06;564.10;2432.00
66827;DHT22;53727;45.242;19.796;2022-09-09T02:56:32;563.90;2432.00
66827;DHT22;53727;45.242;19.796;2022-09-09T02:59:04;563.90;2432.00
66827;DHT22;53727;45.242;19.796;2022-09-09T03:01:30;564.00;2432.00
66827;DHT22;53727;45.242;19.796;2022-09-09T03:03:57;564.00;2432.00
66827;DHT22;53727;45.242;19.796;2022-09-09T03:06:22;564.10;2432.00
66827;DHT22;53727;45.242;19.796;2022-09-09T03:08:48;564.10;2432.00
66827;DHT22;53727;45.242;19.796;2022-09-09T03:11:16;564.10;2432.00
66827;DHT22;53727;45.242;19.796;2022-09-09T03:13:42;564.10;2432.00
66827;DHT22;53727;45.242;19.796;2022-09-09T03:16:07;564.10;2432.00
66827;DHT22;53727;45.242;19.796;2022-09-09T03:18:33;564.10;2432.00
66827;DHT22;53727;45.242;19.796;2022-09-09T03:21:00;564.00;2432.00
66827;DHT22;53727;45.242;19.796;2022-09-09T03:23:26;563.90;2432.00
66827;DHT22;53727;45.242;19.796;2022-09-09T03:25:52;563.90;2432.00
66827;DHT22;53727;45.242;19.796;2022-09-09T03:28:20;563.80;2432.00
66827;DHT22;53727;45.242;19.796;2022-09-09T03:30:46;563.80;2432.00
66827;DHT22;53727;45.242;19.796;2022-09-09T03:33:11;563.80;2432.00
66827;DHT22;53727;45.242;19.796;2022-09-09T03:35:38;563.90;2432.00
66827;DHT22;53727;45.242;19.796;2022-09-09T03:38:04;563.90;2432.00
66827;DHT22;53727;45.242;19.796;2022-09-09T03:40:30;563.80;2432.00
66827;DHT22;53727;45.242;19.796;2022-09-09T03:42:56;563.80;2432.00
66827;DHT22;53727;45.242;19.796;2022-09-09T03:45:22;563.80;2432.00
66827;DHT22;53727;45.242;19.796;2022-09-09T03:47:47;563.70;2432.00
66827;DHT22;53727;45.242;19.796;2022-09-09T03:50:14;563.80;2432.00
66827;DHT22;53727;45.242;19.796;2022-09-09T06:16:52;563.50;2432.00
66827;DHT22;53727;45.242;19.796;2022-09-09T06:19:18;563.40;2432.00
66827;DHT22;53727;45.242;19.796;2022-09-09T06:21:45;563.30;2432.00
66827;DHT22;53727;45.242;19.796;2022-09-09T06:24:13;563.20;2432.00
66827;DHT22;53727;45.242;19.796;2022-09-09T06:26:42;563.30;2432.00
66827;DHT22;53727;45.242;19.796;2022-09-09T06:29:08;563.30;2432.00
66827;DHT22;53727;45.242;19.796;2022-09-09T06:31:35;563.30;2432.00
66827;DHT22;53727;45.242;19.796;2022-09-09T06:43:49;538.30;2406.40
66827;DHT22;53727;45.242;19.796;2022-09-09T06:46:17;538.20;2406.40
66827;DHT22;53727;45.242;19.796;2022-09-09T06:48:44;538.20;2406.40
66827;DHT22;53727;45.242;19.796;2022-09-09T06:53:39;538.10;2406.40
66827;DHT22;53727;45.242;19.796;2022-09-09T06:58:39;538.10;2406.40
66827;DHT22;53727;45.242;19.796;2022-09-09T07:01:08;538.10;2406.40
66827;DHT22;53727;45.242;19.796;2022-09-09T07:03:35;538.10;2406.40
66827;DHT22;53727;45.242;19.796;2022-09-09T07:06:01;538.10;2406.40
66827;DHT22;53727;45.242;19.796;2022-09-09T07:08:27;538.10;2406.40
66827;DHT22;53727;45.242;19.796;2022-09-09T07:10:54;538.10;2406.40
66827;DHT22;53727;45.242;19.796;2022-09-09T07:13:26;538.10;2406.40
66827;DHT22;53727;45.242;19.796;2022-09-09T07:15:52;538.20;2406.40
66827;DHT22;53727;45.242;19.796;2022-09-09T07:18:19;538.20;2406.40
66827;DHT22;53727;45.242;19.796;2022-09-09T07:20:55;538.30;2406.40
66827;DHT22;53727;45.242;19.796;2022-09-09T07:23:23;538.30;2406.40
66827;DHT22;53727;45.242;19.796;2022-09-09T07:25:49;538.40;2406.40
66827;DHT22;53727;45.242;19.796;2022-09-09T07:28:16;563.20;2432.00
66827;DHT22;53727;45.242;19.796;2022-09-09T07:30:42;563.30;2432.00
66827;DHT22;53727;45.242;19.796;2022-09-09T07:33:08;563.30;2432.00
66827;DHT22;53727;45.242;19.796;2022-09-09T07:35:35;563.30;2432.00
66827;DHT22;53727;45.242;19.796;2022-09-09T07:38:02;563.30;2432.00
66827;DHT22;53727;45.242;19.796;2022-09-09T07:40:33;563.30;2432.00
66827;DHT22;53727;45.242;19.796;2022-09-09T07:42:59;563.70;2432.00
66827;DHT22;53727;45.242;19.796;2022-09-09T07:45:26;563.80;2432.00
66827;DHT22;53727;45.242;19.796;2022-09-09T07:57:41;589.10;2432.00
66827;DHT22;53727;45.242;19.796;2022-09-09T08:00:07;589.00;2432.00
66827;DHT22;53727;45.242;19.796;2022-09-09T08:02:33;589.20;2432.00
66827;DHT22;53727;45.242;19.796;2022-09-09T08:04:59;589.40;2432.00
66827;DHT22;53727;45.242;19.796;2022-09-09T08:07:24;589.50;2432.00
66827;DHT22;53727;45.242;19.796;2022-09-09T08:09:50;614.40;2432.00
66827;DHT22;53727;45.242;19.796;2022-09-09T08:12:16;614.60;2432.00
66827;DHT22;53727;45.242;19.796;2022-09-09T08:14:42;614.70;2432.00
66827;DHT22;53727;45.242;19.796;2022-09-09T08:17:08;614.90;2432.00
66827;DHT22;53727;45.242;19.796;2022-09-09T08:19:33;615.10;2432.00
66827;DHT22;53727;45.242;19.796;2022-09-09T08:22:01;640.00;2432.00
66827;DHT22;53727;45.242;19.796;2022-09-09T08:24:28;640.20;2432.00
66827;DHT22;53727;45.242;19.796;2022-09-09T08:26:53;640.40;2432.00
66827;DHT22;53727;45.242;19.796;2022-09-09T08:29:20;640.30;2432.00
66827;DHT22;53727;45.242;19.796;2022-09-09T08:31:48;640.20;2432.00
66827;DHT22;53727;45.242;19.796;2022-09-09T08:34:14;640.30;2432.00
66827;DHT22;53727;45.242;19.796;2022-09-09T08:36:44;640.70;2432.00
66827;DHT22;53727;45.242;19.796;2022-09-09T08:39:13;640.70;2432.00
66827;DHT22;53727;45.242;19.796;2022-09-09T08:44:18;665.80;2432.00
66827;DHT22;53727;45.242;19.796;2022-09-09T08:47:52;666.10;2432.00
66827;DHT22;53727;45.242;19.796;2022-09-09T08:52:47;666.10;2432.00
66827;DHT22;53727;45.242;19.796;2022-09-09T08:55:23;666.20;2432.00
66827;DHT22;53727;45.242;19.796;2022-09-09T08:57:53;666.20;2432.00
66827;DHT22;53727;45.242;19.796;2022-09-09T09:00:20;666.20;2432.00
66827;DHT22;53727;45.242;19.796;2022-09-09T09:10:55;666.30;2432.00
66827;DHT22;53727;45.242;19.796;2022-09-09T09:13:54;666.40;2432.00
66827;DHT22;53727;45.242;19.796;2022-09-09T09:16:33;666.50;2432.00
66827;DHT22;53727;45.242;19.796;2022-09-09T09:19:00;691.40;2432.00
66827;DHT22;53727;45.242;19.796;2022-09-09T09:22:00;691.40;2432.00
66827;DHT22;53727;45.242;19.796;2022-09-09T09:24:55;691.60;2432.00
66827;DHT22;53727;45.242;19.796;2022-09-09T09:27:35;691.40;2432.00
66827;DHT22;53727;45.242;19.796;2022-09-09T09:30:23;691.40;2432.00
66827;DHT22;53727;45.242;19.796;2022-09-09T09:33:05;691.70;2432.00
66827;DHT22;53727;45.242;19.796;2022-09-09T09:35:34;691.40;2432.00
66827;DHT22;53727;45.242;19.796;2022-09-09T09:37:59;691.40;2432.00
66827;DHT22;53727;45.242;19.796;2022-09-09T09:40:26;691.70;2432.00
66827;DHT22;53727;45.242;19.796;2022-09-09T09:42:58;691.80;2432.00
66827;DHT22;53727;45.242;19.796;2022-09-09T09:45:43;691.80;2432.00
66827;DHT22;53727;45.242;19.796;2022-09-09T09:48:13;692.00;2432.00
66827;DHT22;53727;45.242;19.796;2022-09-09T09:50:49;716.80;2432.00
66827;DHT22;53727;45.242;19.796;2022-09-09T09:53:25;716.80;2432.00
66827;DHT22;53727;45.242;19.796;2022-09-09T09:56:02;692.00;2432.00
66827;DHT22;53727;45.242;19.796;2022-09-09T09:58:31;691.90;2432.00
66827;DHT22;53727;45.242;19.796;2022-09-09T10:01:00;692.10;2432.00
66827;DHT22;53727;45.242;19.796;2022-09-09T10:03:28;691.80;2432.00
66827;DHT22;53727;45.242;19.796;2022-09-09T10:05:57;692.00;2432.00
66827;DHT22;53727;45.242;19.796;2022-09-09T10:08:25;691.90;2432.00
66827;DHT22;53727;45.242;19.796;2022-09-09T10:19:34;716.90;2432.00
66827;DHT22;53727;45.242;19.796;2022-09-09T10:22:27;717.30;2432.00
66827;DHT22;53727;45.242;19.796;2022-09-09T10:30:19;717.70;2432.00
66827;DHT22;53727;45.242;19.796;2022-09-09T10:55:16;742.50;2432.00
66827;DHT22;53727;45.242;19.796;2022-09-09T10:57:46;742.70;2432.00
66827;DHT22;53727;45.242;19.796;2022-09-09T11:00:23;742.80;2432.00
66827;DHT22;53727;45.242;19.796;2022-09-09T11:03:01;742.80;2432.00
66827;DHT22;53727;45.242;19.796;2022-09-09T11:05:31;743.00;2432.00
66827;DHT22;53727;45.242;19.796;2022-09-09T11:08:12;743.00;2432.00
66827;DHT22;53727;45.242;19.796;2022-09-09T11:19:28;768.10;2432.00
66827;DHT22;53727;45.242;19.796;2022-09-09T11:21:57;768.80;2432.00
66827;DHT22;53727;45.242;19.796;2022-09-09T11:24:35;793.90;2355.20
66827;DHT22;53727;45.242;19.796;2022-09-09T11:27:51;793.90;2406.40
66827;DHT22;53727;45.242;19.796;2022-09-09T11:33:08;793.90;2380.80
66827;DHT22;53727;45.242;19.796;2022-09-09T11:38:27;768.20;2432.00
66827;DHT22;53727;45.242;19.796;2022-09-09T11:41:03;743.30;2432.00
66827;DHT22;53727;45.242;19.796;2022-09-09T11:43:38;743.20;2432.00
66827;DHT22;53727;45.242;19.796;2022-09-09T11:46:05;743.30;2432.00
66827;DHT22;53727;45.242;19.796;2022-09-09T11:49:21;768.50;2432.00
66827;DHT22;53727;45.242;19.796;2022-09-09T11:53:58;768.60;2380.80
66827;DHT22;53727;45.242;19.796;2022-09-09T11:56:43;793.90;2380.80
66827;DHT22;53727;45.242;19.796;2022-09-09T11:59:30;768.70;2380.80
66827;DHT22;53727;45.242;19.796;2022-09-09T12:09:52;794.20;2304.00
66827;DHT22;53727;45.242;19.796;2022-09-09T12:12:23;794.40;2227.20
66827;DHT22;53727;45.242;19.796;2022-09-09T12:17:29;794.20;2227.20
66827;DHT22;53727;45.242;19.796;2022-09-09T12:28:19;793.90;2252.80
66827;DHT22;53727;45.242;19.796;2022-09-09T12:33:37;794.30;2227.20
66827;DHT22;53727;45.242;19.796;2022-09-09T12:36:11;819.30;2227.20
66827;DHT22;53727;45.242;19.796;2022-09-09T12:38:40;819.80;2099.20
66827;DHT22;53727;45.242;19.796;2022-09-09T12:41:25;794.30;2124.80
66827;DHT22;53727;45.242;19.796;2022-09-09T12:43:51;794.00;2150.40
66827;DHT22;53727;45.242;19.796;2022-09-09T12:46:38;793.90;2099.20
66827;DHT22;53727;45.242;19.796;2022-09-09T12:49:20;793.70;2099.20
66827;DHT22;53727;45.242;19.796;2022-09-09T12:51:50;794.30;2099.20
66827;DHT22;53727;45.242;19.796;2022-09-09T12:54:15;794.40;2124.80
66827;DHT22;53727;45.242;19.796;2022-09-09T12:56:48;819.80;2073.60
66827;DHT22;53727;45.242;19.796;2022-09-09T12:59:27;844.80;2073.60
66827;DHT22;53727;45.242;19.796;2022-09-09T13:02:00;844.90;2048.00
66827;DHT22;53727;45.242;19.796;2022-09-09T13:04:26;845.40;2022.40
66827;DHT22;53727;45.242;19.796;2022-09-09T13:06:52;845.60;1971.20
66827;DHT22;53727;45.242;19.796;2022-09-09T13:09:18;844.90;1996.80
66827;DHT22;53727;45.242;19.796;2022-09-09T13:11:49;845.10;2022.40
66827;DHT22;53727;45.242;19.796;2022-09-09T13:14:19;845.70;1945.60
66827;DHT22;53727;45.242;19.796;2022-09-09T13:16:56;870.40;1971.20
66827;DHT22;53727;45.242;19.796;2022-09-09T13:19:22;845.60;1894.40
66827;DHT22;53727;45.242;19.796;2022-09-09T13:21:51;870.50;1971.20
66827;DHT22;53727;45.242;19.796;2022-09-09T13:24:32;870.80;1868.80
66827;DHT22;53727;45.242;19.796;2022-09-09T13:27:04;871.00;1868.80
66827;DHT22;53727;45.242;19.796;2022-09-09T13:29:31;870.70;1945.60
66827;DHT22;53727;45.242;19.796;2022-09-09T13:32:16;870.60;1920.00
66827;DHT22;53727;45.242;19.796;2022-09-09T13:34:51;870.70;1945.60
66827;DHT22;53727;45.242;19.796;2022-09-09T13:39:55;870.90;1920.00
66827;DHT22;53727;45.242;19.796;2022-09-09T13:42:27;871.10;1868.80
66827;DHT22;53727;45.242;19.796;2022-09-09T13:44:55;871.10;1868.80
66827;DHT22;53727;45.242;19.796;2022-09-09T13:47:33;870.90;1868.80
66827;DHT22;53727;45.242;19.796;2022-09-09T13:52:47;871.20;1843.20
66827;DHT22;53727;45.242;19.796;2022-09-09T13:55:12;896.10;1843.20
66827;DHT22;53727;45.242;19.796;2022-09-09T13:57:38;896.00;1817.60
66827;DHT22;53727;45.242;19.796;2022-09-09T14:00:06;871.20;1817.60
66827;DHT22;53727;45.242;19.796;2022-09-09T14:02:34;896.00;1817.60
66827;DHT22;53727;45.242;19.796;2022-09-09T14:04:59;871.30;1792.00
66827;DHT22;53727;45.242;19.796;2022-09-09T14:07:25;870.50;1715.20
66827;DHT22;53727;45.242;19.796;2022-09-09T14:09:51;845.60;1868.80
66827;DHT22;53727;45.242;19.796;2022-09-09T14:12:18;870.70;1843.20
66827;DHT22;53727;45.242;19.796;2022-09-09T14:14:43;870.70;1868.80
66827;DHT22;53727;45.242;19.796;2022-09-09T14:17:09;871.10;1817.60
66827;DHT22;53727;45.242;19.796;2022-09-09T14:19:35;871.30;1817.60
66827;DHT22;53727;45.242;19.796;2022-09-09T14:22:02;871.00;1792.00
66827;DHT22;53727;45.242;19.796;2022-09-09T14:24:28;871.10;1817.60
66827;DHT22;53727;45.242;19.796;2022-09-09T14:26:54;871.30;1817.60
66827;DHT22;53727;45.242;19.796;2022-09-09T14:29:20;871.30;1817.60
66827;DHT22;53727;45.242;19.796;2022-09-09T14:31:45;871.30;1792.00
66827;DHT22;53727;45.242;19.796;2022-09-09T14:34:12;896.00;1792.00
66827;DHT22;53727;45.242;19.796;2022-09-09T14:36:39;870.60;1843.20
66827;DHT22;53727;45.242;19.796;2022-09-09T14:39:06;845.60;1868.80
66827;DHT22;53727;45.242;19.796;2022-09-09T14:41:31;845.40;1894.40
66827;DHT22;53727;45.242;19.796;2022-09-09T14:43:57;845.30;1894.40
66827;DHT22;53727;45.242;19.796;2022-09-09T14:46:23;845.10;1894.40
66827;DHT22;53727;45.242;19.796;2022-09-09T14:48:49;844.80;1945.60
66827;DHT22;53727;45.242;19.796;2022-09-09T14:51:20;819.90;1945.60
66827;DHT22;53727;45.242;19.796;2022-09-09T14:53:48;820.10;1971.20
66827;DHT22;53727;45.242;19.796;2022-09-09T14:56:16;844.80;1971.20
66827;DHT22;53727;45.242;19.796;2022-09-09T14:58:42;845.30;1945.60
66827;DHT22;53727;45.242;19.796;2022-09-09T15:01:11;845.60;1920.00
66827;DHT22;53727;45.242;19.796;2022-09-09T15:03:38;845.70;1894.40
66827;DHT22;53727;45.242;19.796;2022-09-09T15:06:09;870.70;1868.80
66827;DHT22;53727;45.242;19.796;2022-09-09T15:08:36;871.00;1843.20
66827;DHT22;53727;45.242;19.796;2022-09-09T15:11:04;871.00;1843.20
66827;DHT22;53727;45.242;19.796;2022-09-09T15:13:30;871.00;1843.20
66827;DHT22;53727;45.242;19.796;2022-09-09T15:15:56;870.60;1868.80
66827;DHT22;53727;45.242;19.796;2022-09-09T15:18:23;870.50;1843.20
66827;DHT22;53727;45.242;19.796;2022-09-09T15:20:49;845.50;1868.80
66827;DHT22;53727;45.242;19.796;2022-09-09T15:23:14;845.60;1894.40
66827;DHT22;53727;45.242;19.796;2022-09-09T15:25:55;921.90;1715.20
66827;DHT22;53727;45.242;19.796;2022-09-09T15:28:22;896.10;1766.40
66827;DHT22;53727;45.242;19.796;2022-09-09T15:30:50;972.90;1587.20
66827;DHT22;53727;45.242;19.796;2022-09-09T15:33:17;1024.00;1459.20
66827;DHT22;53727;45.242;19.796;2022-09-09T15:35:43;1050.40;1382.40
66827;DHT22;53727;45.242;19.796;2022-09-09T15:40:35;1101.50;1228.80
66827;DHT22;53727;45.242;19.796;2022-09-09T15:43:01;1101.50;1254.40
66827;DHT22;53727;45.242;19.796;2022-09-09T15:45:30;1101.30;1228.80
66827;DHT22;53727;45.242;19.796;2022-09-09T15:47:57;1049.70;1331.20
66827;DHT22;53727;45.242;19.796;2022-09-09T15:50:23;1075.60;1280.00
66827;DHT22;53727;45.242;19.796;2022-09-09T15:52:49;1050.50;1280.00
66827;DHT22;53727;45.242;19.796;2022-09-09T15:55:14;1024.30;1331.20
66827;DHT22;53727;45.242;19.796;2022-09-09T15:57:40;973.40;1408.00
66827;DHT22;53727;45.242;19.796;2022-09-09T16:00:07;947.20;1484.80
66827;DHT22;53727;45.242;19.796;2022-09-09T16:02:33;896.30;1561.60
66827;DHT22;53727;45.242;19.796;2022-09-09T16:04:59;870.90;1638.40
66827;DHT22;53727;45.242;19.796;2022-09-09T16:07:26;845.60;1715.20
66827;DHT22;53727;45.242;19.796;2022-09-09T16:09:52;845.10;1792.00
66827;DHT22;53727;45.242;19.796;2022-09-09T16:12:18;819.80;1817.60
66827;DHT22;53727;45.242;19.796;2022-09-09T16:14:44;819.50;1843.20
66827;DHT22;53727;45.242;19.796;2022-09-09T16:17:11;819.30;1894.40
66827;DHT22;53727;45.242;19.796;2022-09-09T16:19:37;794.30;1920.00
66827;DHT22;53727;45.242;19.796;2022-09-09T16:22:04;794.10;1945.60
66827;DHT22;53727;45.242;19.796;2022-09-09T16:24:30;793.70;1971.20
66827;DHT22;53727;45.242;19.796;2022-09-09T16:26:56;768.90;1971.20
66827;DHT22;53727;45.242;19.796;2022-09-09T16:29:22;768.80;1971.20
66827;DHT22;53727;45.242;19.796;2022-09-09T16:31:49;768.60;2022.40
66827;DHT22;53727;45.242;19.796;2022-09-09T16:34:16;768.50;2048.00
66827;DHT22;53727;45.242;19.796;2022-09-09T16:36:44;768.20;2048.00
66827;DHT22;53727;45.242;19.796;2022-09-09T16:39:17;768.10;2048.00
66827;DHT22;53727;45.242;19.796;2022-09-09T16:41:44;743.30;2073.60
66827;DHT22;53727;45.242;19.796;2022-09-09T16:44:11;743.20;2099.20
66827;DHT22;53727;45.242;19.796;2022-09-09T16:46:40;743.10;2124.80
66827;DHT22;53727;45.242;19.796;2022-09-09T16:49:12;743.00;2124.80
66827;DHT22;53727;45.242;19.796;2022-09-09T16:51:43;742.90;2176.00
66827;DHT22;53727;45.242;19.796;2022-09-09T16:54:09;742.80;2201.60
66827;DHT22;53727;45.242;19.796;2022-09-09T16:56:38;742.70;2201.60
66827;DHT22;53727;45.242;19.796;2022-09-09T16:59:09;742.60;2252.80
66827;DHT22;53727;45.242;19.796;2022-09-09T17:01:38;742.50;2252.80
66827;DHT22;53727;45.242;19.796;2022-09-09T17:04:06;742.50;2329.60
66827;DHT22;53727;45.242;19.796;2022-09-09T17:06:33;717.70;2329.60
66827;DHT22;53727;45.242;19.796;2022-09-09T17:09:09;717.60;2329.60
66827;DHT22;53727;45.242;19.796;2022-09-09T17:11:36;717.50;2406.40
66827;DHT22;53727;45.242;19.796;2022-09-09T17:14:03;717.50;2406.40
66827;DHT22;53727;45.242;19.796;2022-09-09T17:16:30;717.40;2432.00
66827;DHT22;53727;45.242;19.796;2022-09-09T17:18:57;717.40;2432.00
66827;DHT22;53727;45.242;19.796;2022-09-09T17:21:25;717.40;2432.00
66827;DHT22;53727;45.242;19.796;2022-09-09T17:23:52;717.40;2432.00
66827;DHT22;53727;45.242;19.796;2022-09-09T17:26:19;717.50;2432.00
66827;DHT22;53727;45.242;19.796;2022-09-09T17:28:45;717.30;2432.00
66827;DHT22;53727;45.242;19.796;2022-09-09T17:31:12;717.30;2432.00
66827;DHT22;53727;45.242;19.796;2022-09-09T17:33:41;717.30;2432.00
66827;DHT22;53727;45.242;19.796;2022-09-09T17:36:16;717.30;2432.00
66827;DHT22;53727;45.242;19.796;2022-09-09T17:38:42;717.20;2432.00
66827;DHT22;53727;45.242;19.796;2022-09-09T17:43:40;717.10;2432.00
66827;DHT22;53727;45.242;19.796;2022-09-09T17:46:20;717.10;2432.00
66827;DHT22;53727;45.242;19.796;2022-09-09T17:48:49;717.10;2432.00
66827;DHT22;53727;45.242;19.796;2022-09-09T17:51:17;717.00;2432.00
66827;DHT22;53727;45.242;19.796;2022-09-09T17:53:46;692.10;2432.00
66827;DHT22;53727;45.242;19.796;2022-09-09T17:56:14;692.00;2432.00
66827;DHT22;53727;45.242;19.796;2022-09-09T17:58:40;692.00;2432.00
66827;DHT22;53727;45.242;19.796;2022-09-09T18:01:12;691.90;2432.00
66827;DHT22;53727;45.242;19.796;2022-09-09T18:03:42;691.80;2432.00
66827;DHT22;53727;45.242;19.796;2022-09-09T18:06:13;691.90;2432.00
66827;DHT22;53727;45.242;19.796;2022-09-09T18:08:41;691.80;2432.00
66827;DHT22;53727;45.242;19.796;2022-09-09T18:11:07;691.80;2432.00
66827;DHT22;53727;45.242;19.796;2022-09-09T18:13:33;691.90;2432.00
66827;DHT22;53727;45.242;19.796;2022-09-09T18:15:59;691.90;2432.00
66827;DHT22;53727;45.242;19.796;2022-09-09T18:18:26;691.80;2432.00
66827;DHT22;53727;45.242;19.796;2022-09-09T18:21:00;691.70;2432.00
66827;DHT22;53727;45.242;19.796;2022-09-09T18:23:30;691.60;2432.00
66827;DHT22;53727;45.242;19.796;2022-09-09T18:25:56;691.60;2432.00
66827;DHT22;53727;45.242;19.796;2022-09-09T18:30:52;691.30;2432.00
66827;DHT22;53727;45.242;19.796;2022-09-09T18:33:18;666.50;2432.00
66827;DHT22;53727;45.242;19.796;2022-09-09T18:35:44;666.10;2432.00
66827;DHT22;53727;45.242;19.796;2022-09-09T18:38:12;665.60;2432.00
66827;DHT22;53727;45.242;19.796;2022-09-09T18:40:38;640.90;2432.00
66827;DHT22;53727;45.242;19.796;2022-09-09T18:43:04;640.80;2432.00
66827;DHT22;53727;45.242;19.796;2022-09-09T18:45:30;640.60;2432.00
66827;DHT22;53727;45.242;19.796;2022-09-09T18:47:59;640.60;2432.00
66827;DHT22;53727;45.242;19.796;2022-09-09T18:50:25;640.60;2432.00
66827;DHT22;53727;45.242;19.796;2022-09-09T18:52:51;640.50;2432.00
66827;DHT22;53727;45.242;19.796;2022-09-09T18:55:17;640.50;2432.00
66827;DHT22;53727;45.242;19.796;2022-09-09T18:57:43;640.50;2432.00
66827;DHT22;53727;45.242;19.796;2022-09-09T19:00:09;640.60;2432.00
66827;DHT22;53727;45.242;19.796;2022-09-09T19:02:36;640.40;2432.00
66827;DHT22;53727;45.242;19.796;2022-09-09T19:05:03;640.30;2432.00
66827;DHT22;53727;45.242;19.796;2022-09-09T19:07:29;640.20;2432.00
66827;DHT22;53727;45.242;19.796;2022-09-09T19:09:55;640.00;2432.00
66827;DHT22;53727;45.242;19.796;2022-09-09T19:12:20;640.10;2432.00
66827;DHT22;53727;45.242;19.796;2022-09-09T19:14:46;640.10;2432.00
66827;DHT22;53727;45.242;19.796;2022-09-09T19:17:12;640.10;2432.00
66827;DHT22;53727;45.242;19.796;2022-09-09T19:19:37;640.10;2432.00
66827;DHT22;53727;45.242;19.796;2022-09-09T19:22:07;640.20;2432.00
66827;DHT22;53727;45.242;19.796;2022-09-09T19:24:36;640.20;2432.00
66827;DHT22;53727;45.242;19.796;2022-09-09T19:27:04;640.20;2432.00
66827;DHT22;53727;45.242;19.796;2022-09-09T19:29:33;640.30;2432.00
66827;DHT22;53727;45.242;19.796;2022-09-09T19:32:00;640.30;2432.00
66827;DHT22;53727;45.242;19.796;2022-09-09T19:34:27;640.40;2432.00
66827;DHT22;53727;45.242;19.796;2022-09-09T19:36:53;640.40;2432.00
66827;DHT22;53727;45.242;19.796;2022-09-09T19:39:19;640.40;2432.00
66827;DHT22;53727;45.242;19.796;2022-09-09T19:41:47;640.40;2432.00
66827;DHT22;53727;45.242;19.796;2022-09-09T19:44:14;640.40;2432.00
66827;DHT22;53727;45.242;19.796;2022-09-09T19:46:46;640.40;2432.00
66827;DHT22;53727;45.242;19.796;2022-09-09T19:49:11;640.40;2432.00
66827;DHT22;53727;45.242;19.796;2022-09-09T19:51:37;640.30;2432.00
66827;DHT22;53727;45.242;19.796;2022-09-09T19:54:05;640.40;2432.00
66827;DHT22;53727;45.242;19.796;2022-09-09T19:56:34;640.40;2432.00
66827;DHT22;53727;45.242;19.796;2022-09-09T19:59:00;640.40;2432.00
66827;DHT22;53727;45.242;19.796;2022-09-09T20:01:28;640.40;2432.00
66827;DHT22;53727;45.242;19.796;2022-09-09T20:03:55;640.40;2432.00
66827;DHT22;53727;45.242;19.796;2022-09-09T20:06:27;640.30;2432.00